Time;durP1;ratioP1;P1;durP2;ratioP2;P2;SDS_P1;SDS_P2;PMS_P1;PMS_P2;Temp;Humidity;BMP_temperature;BMP_pressure;BME280_temperature;BME280_humidity;BME280_pressure;Samples;Min_cycle;Max_cycle;Signal;HPM_P1;HPM_P2
2022/06/16 00:03:45;;;;;;;11.90;6.60;;;;;;;;;;8483012;27;20039;-87
2022/06/16 00:07:47;;;;;;;11.18;6.53;;;;;;;;;;8488130;27;20050;-90
2022/06/16 00:11:54;;;;;;;11.07;6.65;;;;;;;;;;8478778;27;20043;-91
2022/06/16 00:15:56;;;;;;;9.40;6.32;;;;;;;;;;8480918;27;20040;-90
2022/06/16 00:20:00;;;;;;;11.38;6.95;;;;;;;;;;8480710;27;20037;-89
2022/06/16 00:24:03;;;;;;;10.40;6.07;;;;;;;;;;8496092;27;20099;-89
2022/06/16 00:28:07;;;;;;;13.48;6.55;;;;;;;;;;8484934;27;20044;-91
2022/06/16 00:32:10;;;;;;;11.38;6.78;;;;;;;;;;8485418;27;20442;-88
2022/06/16 00:36:13;;;;;;;12.45;6.90;;;;;;;;;;8495452;27;20043;-89
2022/06/16 00:40:16;;;;;;;11.40;6.47;;;;;;;;;;8479160;27;20039;-88
2022/06/16 00:44:41;;;;;;;11.57;7.18;;;;;;;;;;8493296;27;20054;-88
2022/06/16 00:48:47;;;;;;;14.88;6.95;;;;;;;;;;8470874;27;20051;-88
2022/06/16 00:52:49;;;;;;;11.65;7.05;;;;;;;;;;8483646;27;20039;-88
2022/06/16 00:56:55;;;;;;;10.57;6.50;;;;;;;;;;8494737;27;20047;-87
2022/06/16 01:00:59;;;;;;;13.30;7.10;;;;;;;;;;8489832;28;20466;-87
2022/06/16 01:05:02;;;;;;;11.70;6.90;;;;;;;;;;8495412;27;20059;-87
2022/06/16 01:09:07;;;;;;;11.45;7.10;;;;;;;;;;8496584;27;20050;-88
2022/06/16 01:13:44;;;;;;;12.27;6.93;;;;;;;;;;8491586;27;20051;-88
2022/06/16 01:17:56;;;;;;;10.43;7.00;;;;;;;;;;8497517;27;20036;-92
2022/06/16 01:22:02;;;;;;;12.13;6.93;;;;;;;;;;8494578;27;20039;-89
2022/06/16 01:26:35;;;;;;;12.30;6.78;;;;;;;;;;8491704;27;20107;-87
2022/06/16 01:30:48;;;;;;;9.82;6.35;;;;;;;;;;8497068;27;20039;-90
2022/06/16 01:35:02;;;;;;;11.55;7.40;;;;;;;;;;8496032;27;20039;-87
2022/06/16 01:39:10;;;;;;;11.05;6.97;;;;;;;;;;8486636;27;20046;-87
2022/06/16 01:43:18;;;;;;;13.35;6.95;;;;;;;;;;8490189;27;20043;-86
2022/06/16 01:47:24;;;;;;;11.98;6.85;;;;;;;;;;8494526;27;20043;-88
2022/06/16 01:51:34;;;;;;;11.48;6.32;;;;;;;;;;8495567;27;20067;-92
2022/06/16 01:55:40;;;;;;;9.48;6.55;;;;;;;;;;8490938;27;20047;-86
2022/06/16 01:59:49;;;;;;;11.50;6.68;;;;;;;;;;8492680;27;20042;-87
2022/06/16 02:03:57;;;;;;;11.13;6.55;;;;;;;;;;8488583;27;20471;-88
2022/06/16 02:08:03;;;;;;;9.75;6.20;;;;;;;;;;8486819;27;20048;-86
2022/06/16 02:12:11;;;;;;;11.00;6.82;;;;;;;;;;8497367;27;20092;-87
2022/06/16 02:16:19;;;;;;;11.20;6.28;;;;;;;;;;8497507;27;20498;-86
2022/06/16 02:20:26;;;;;;;8.82;6.15;;;;;;;;;;8497114;27;20050;-86
2022/06/16 02:24:30;;;;;;;10.90;7.15;;;;;;;;;;8471428;27;20052;-85
2022/06/16 02:28:43;;;;;;;9.45;6.53;;;;;;;;;;8485971;27;20536;-86
2022/06/16 02:32:50;;;;;;;;;;;;;;;;;;8499533;27;20043;-86
2022/06/16 02:37:20;;;;;;;10.32;6.72;;;;;;;;;;8493507;27;19919;-86
2022/06/16 02:41:32;;;;;;;9.07;5.80;;;;;;;;;;8489136;27;20043;-85
2022/06/16 02:45:39;;;;;;;11.52;6.70;;;;;;;;;;8487403;27;20047;-85
2022/06/16 02:50:02;;;;;;;8.55;6.20;;;;;;;;;;8487787;27;20051;-85
2022/06/16 02:54:13;;;;;;;12.48;6.60;;;;;;;;;;8497971;27;20068;-85
2022/06/16 02:58:19;;;;;;;10.82;5.70;;;;;;;;;;8491998;27;20478;-88
2022/06/16 03:02:24;;;;;;;12.27;6.25;;;;;;;;;;8499867;27;20046;-86
2022/06/16 03:06:27;;;;;;;10.15;6.57;;;;;;;;;;8491227;27;20112;-87
2022/06/16 03:10:52;;;;;;;9.15;6.18;;;;;;;;;;8490605;27;20088;-87
2022/06/16 03:14:54;;;;;;;9.05;6.10;;;;;;;;;;8494430;27;20051;-86
2022/06/16 03:18:57;;;;;;;11.73;6.60;;;;;;;;;;8495994;27;20062;-85
2022/06/16 03:23:00;;;;;;;8.77;5.85;;;;;;;;;;8498477;27;20402;-88
2022/06/16 03:27:05;;;;;;;9.30;5.88;;;;;;;;;;8488420;27;20422;-87
2022/06/16 03:31:07;;;;;;;11.32;6.80;;;;;;;;;;8480843;27;20062;-91
2022/06/16 03:35:10;;;;;;;9.57;6.07;;;;;;;;;;8497390;27;20043;-86
2022/06/16 03:39:12;;;;;;;8.98;5.97;;;;;;;;;;8498899;27;20100;-88
2022/06/16 03:43:16;;;;;;;10.77;5.53;;;;;;;;;;8497785;27;20039;-85
2022/06/16 03:47:19;;;;;;;11.57;6.05;;;;;;;;;;8497217;27;20080;-86
2022/06/16 03:51:22;;;;;;;8.88;5.75;;;;;;;;;;8495150;27;20042;-86
2022/06/16 03:55:25;;;;;;;10.05;6.03;;;;;;;;;;8497283;27;20050;-87
2022/06/16 03:59:29;;;;;;;9.02;5.85;;;;;;;;;;8496081;27;20039;-86
2022/06/16 04:07:51;;;;;;;10.38;6.18;;;;;;;;;;8496863;27;20054;-92
2022/06/16 04:11:54;;;;;;;11.00;6.93;;;;;;;;;;8486279;27;20039;-89
2022/06/16 04:15:58;;;;;;;8.13;5.45;;;;;;;;;;8485193;27;20043;-89
2022/06/16 04:20:15;;;;;;;9.60;5.45;;;;;;;;;;8494889;27;20490;-90
2022/06/16 04:24:19;;;;;;;6.82;4.82;;;;;;;;;;8491059;27;20059;-90
2022/06/16 04:28:22;;;;;;;8.00;6.00;;;;;;;;;;8489072;27;20032;-91
2022/06/16 04:32:26;;;;;;;8.25;5.25;;;;;;;;;;8466632;27;20096;-90
2022/06/16 04:36:29;;;;;;;10.63;7.63;;;;;;;;;;8479276;27;20047;-92
2022/06/16 04:40:32;;;;;;;10.25;5.00;;;;;;;;;;8474362;27;20478;-91
2022/06/16 04:44:35;;;;;;;8.07;5.50;;;;;;;;;;8493938;27;20043;-91
2022/06/16 04:48:39;;;;;;;7.80;4.72;;;;;;;;;;8496295;27;20493;-90
2022/06/16 04:52:41;;;;;;;7.20;4.75;;;;;;;;;;8497238;27;20046;-89
2022/06/16 04:56:44;;;;;;;7.95;4.85;;;;;;;;;;8494508;27;20036;-91
2022/06/16 05:00:48;;;;;;;7.82;5.25;;;;;;;;;;8479813;28;20046;-91
2022/06/16 05:04:52;;;;;;;7.65;4.30;;;;;;;;;;8480887;28;20402;-91
2022/06/16 05:08:54;;;;;;;8.02;4.20;;;;;;;;;;8483184;28;20043;-91
2022/06/16 05:12:57;;;;;;;6.95;3.83;;;;;;;;;;8490140;28;20043;-90
2022/06/16 05:16:59;;;;;;;6.95;4.53;;;;;;;;;;8469368;28;20416;-89
2022/06/16 05:21:08;;;;;;;6.13;3.95;;;;;;;;;;8476551;28;20044;-89
2022/06/16 05:25:12;;;;;;;5.95;3.88;;;;;;;;;;8482169;28;20059;-88
2022/06/16 05:29:14;;;;;;;7.65;3.90;;;;;;;;;;8490642;28;20043;-91
2022/06/16 05:33:17;;;;;;;7.15;4.20;;;;;;;;;;8481337;28;20439;-89
2022/06/16 05:37:21;;;;;;;8.82;3.72;;;;;;;;;;8469332;28;20053;-90
2022/06/16 05:41:24;;;;;;;5.13;3.03;;;;;;;;;;8489152;28;20482;-90
2022/06/16 05:45:29;;;;;;;6.32;3.10;;;;;;;;;;8497515;28;20048;-91
2022/06/16 05:49:32;;;;;;;5.05;2.92;;;;;;;;;;8486305;27;20040;-90
2022/06/16 05:53:37;;;;;;;5.30;3.20;;;;;;;;;;8501698;27;20112;-91
2022/06/16 05:57:42;;;;;;;5.70;2.90;;;;;;;;;;8490548;27;20060;-92
2022/06/16 06:01:49;;;;;;;4.68;2.72;;;;;;;;;;8488604;27;20044;-93
2022/06/16 06:05:53;;;;;;;7.05;2.70;;;;;;;;;;8479714;27;20066;-88
2022/06/16 06:18:50;;;;;;;5.07;2.85;;;;;;;;;;8486342;27;20043;-90
2022/06/16 06:22:53;;;;;;;4.78;2.47;;;;;;;;;;8479201;27;20076;-93
2022/06/16 06:27:00;;;;;;;5.30;2.80;;;;;;;;;;8485245;27;20051;-89
2022/06/16 06:31:03;;;;;;;4.85;2.08;;;;;;;;;;8488867;27;20879;-89
2022/06/16 06:35:08;;;;;;;3.47;2.22;;;;;;;;;;8487758;27;20470;-94
2022/06/16 06:39:13;;;;;;;11.18;5.75;;;;;;;;;;8484565;27;20043;-94
2022/06/16 06:43:17;;;;;;;3.47;2.38;;;;;;;;;;8501441;27;20116;-91
2022/06/16 06:47:22;;;;;;;5.60;2.17;;;;;;;;;;8490652;27;20566;-92
2022/06/16 06:51:25;;;;;;;6.22;3.30;;;;;;;;;;8484512;27;20040;-87
2022/06/16 06:55:29;;;;;;;7.32;2.60;;;;;;;;;;8479660;27;20529;-92
2022/06/16 06:59:33;;;;;;;7.72;3.95;;;;;;;;;;8497633;27;20054;-93
2022/06/16 07:03:36;;;;;;;32.17;15.70;;;;;;;;;;8486225;27;20039;-94
2022/06/16 07:07:40;;;;;;;6.20;2.50;;;;;;;;;;8491480;27;20047;-90
2022/06/16 07:11:43;;;;;;;7.95;3.90;;;;;;;;;;8481638;27;20410;-89
2022/06/16 07:15:48;;;;;;;10.57;8.48;;;;;;;;;;8489241;27;20498;-90
2022/06/16 07:24:36;;;;;;;4.20;1.90;;;;;;;;;;8512335;27;20051;-95
2022/06/16 07:29:00;;;;;;;6.32;3.40;;;;;;;;;;8417766;28;20052;-93
2022/06/16 07:33:12;;;;;;;5.78;3.10;;;;;;;;;;8415317;28;20049;-87
2022/06/16 07:37:19;;;;;;;3.63;2.10;;;;;;;;;;8410750;28;20413;-95
2022/06/16 07:41:34;;;;;;;14.60;9.18;;;;;;;;;;8390168;28;20086;-95
2022/06/16 07:45:40;;;;;;;7.15;2.30;;;;;;;;;;8382223;28;20106;-89
2022/06/16 07:49:48;;;;;;;8.45;4.45;;;;;;;;;;8387400;28;20562;-95
2022/06/16 07:53:52;;;;;;;6.07;1.90;;;;;;;;;;8381219;28;20056;-93
2022/06/16 07:57:56;;;;;;;4.68;2.42;;;;;;;;;;8393597;28;20048;-93
2022/06/16 08:02:00;;;;;;;5.18;1.88;;;;;;;;;;8396256;28;20061;-96
2022/06/16 08:06:09;;;;;;;9.20;5.50;;;;;;;;;;8395329;28;20055;-89
2022/06/16 08:10:15;;;;;;;4.80;2.00;;;;;;;;;;8394981;28;20071;-95
2022/06/16 08:14:18;;;;;;;4.63;2.20;;;;;;;;;;8397389;28;20048;-93
2022/06/16 08:18:23;;;;;;;5.40;3.10;;;;;;;;;;8381872;28;20156;-91
2022/06/16 08:22:29;;;;;;;5.57;2.58;;;;;;;;;;8396856;28;20048;-92
2022/06/16 08:26:32;;;;;;;4.25;1.90;;;;;;;;;;8398957;28;20412;-94
2022/06/16 08:30:37;;;;;;;4.63;2.00;;;;;;;;;;8382097;28;20099;-92
2022/06/16 08:34:40;;;;;;;5.22;3.13;;;;;;;;;;8392699;28;20075;-89
2022/06/16 08:38:48;;;;;;;12.02;7.45;;;;;;;;;;8383008;28;20068;-92
2022/06/16 08:43:04;;;;;;;4.10;2.55;;;;;;;;;;8408105;28;20036;-91
2022/06/16 08:47:19;;;;;;;4.25;2.00;;;;;;;;;;8405086;28;20596;-92
2022/06/16 08:51:41;;;;;;;5.78;2.33;;;;;;;;;;8380803;28;20163;-96
2022/06/16 09:01:10;;;;;;;6.90;3.53;;;;;;;;;;8347925;28;20085;-93
2022/06/16 09:05:41;;;;;;;7.40;3.35;;;;;;;;;;8290665;28;20077;-92
2022/06/16 09:19:44;;;;;;;4.53;1.88;;;;;;;;;;8286024;28;20060;-94
2022/06/16 09:24:23;;;;;;;3.95;2.05;;;;;;;;;;8341217;28;20147;-90
2022/06/16 09:28:45;;;;;;;6.07;3.13;;;;;;;;;;8312324;28;20467;-92
2022/06/16 09:33:21;;;;;;;3.83;1.80;;;;;;;;;;8384611;28;20076;-90
2022/06/16 09:37:32;;;;;;;4.50;2.17;;;;;;;;;;8386098;28;20045;-89
2022/06/16 09:46:27;;;;;;;5.43;1.90;;;;;;;;;;8387128;28;20136;-88
2022/06/16 09:50:46;;;;;;;5.32;2.28;;;;;;;;;;8395685;28;20045;-96
2022/06/16 10:04:28;;;;;;;4.72;2.03;;;;;;;;;;8378123;28;20216;-94
2022/06/16 10:08:49;;;;;;;3.70;2.15;;;;;;;;;;8377685;28;20057;-93
2022/06/16 10:12:59;;;;;;;;;;;;;;;;;;8376894;28;20071;-92
2022/06/16 10:22:09;;;;;;;3.40;2.10;;;;;;;;;;8386473;28;20053;-92
2022/06/16 10:30:44;;;;;;;4.55;2.08;;;;;;;;;;8370321;28;20192;-91
2022/06/16 10:35:29;;;;;;;5.53;2.22;;;;;;;;;;8386583;28;20053;-90
2022/06/16 10:40:02;;;;;;;6.55;1.98;;;;;;;;;;8285741;28;20075;-92
2022/06/16 10:44:23;;;;;;;4.32;1.98;;;;;;;;;;8302530;28;20062;-88
2022/06/16 11:03:20;;;;;;;5.20;2.30;;;;;;;;;;8074034;29;20058;-90
2022/06/16 11:08:28;;;;;;;3.58;1.88;;;;;;;;;;8070610;29;20081;-92
2022/06/16 11:22:51;;;;;;;5.82;2.40;;;;;;;;;;7911295;30;20052;-90
2022/06/16 11:27:47;;;;;;;4.63;2.33;;;;;;;;;;7927216;29;20056;-90
2022/06/16 11:32:28;;;;;;;3.88;2.00;;;;;;;;;;7888826;30;20082;-91
2022/06/16 11:38:10;;;;;;;5.25;2.10;;;;;;;;;;7894707;30;20110;-89
2022/06/16 11:42:48;;;;;;;5.22;2.50;;;;;;;;;;7809487;30;20056;-88
2022/06/16 11:47:03;;;;;;;6.63;2.30;;;;;;;;;;7864252;30;20068;-92
2022/06/16 11:51:23;;;;;;;6.45;2.80;;;;;;;;;;7956545;29;20057;-89
2022/06/16 12:01:13;;;;;;;7.88;3.45;;;;;;;;;;8071787;29;20092;-95
2022/06/16 12:05:49;;;;;;;5.22;2.30;;;;;;;;;;8143976;29;20070;-96
2022/06/16 12:15:33;;;;;;;6.30;2.60;;;;;;;;;;8142237;29;20079;-90
2022/06/16 12:20:13;;;;;;;;;;;;;;;;;;8138096;29;20082;-90
2022/06/16 12:24:32;;;;;;;5.47;2.22;;;;;;;;;;8153133;29;19942;-90
2022/06/16 12:28:57;;;;;;;4.70;2.25;;;;;;;;;;8103059;29;20083;-91
2022/06/16 12:33:18;;;;;;;6.75;2.80;;;;;;;;;;8147420;29;20060;-91
2022/06/16 12:38:07;;;;;;;3.88;2.80;;;;;;;;;;8098588;29;20052;-94
2022/06/16 12:42:42;;;;;;;3.10;2.30;;;;;;;;;;8174715;28;20074;-93
2022/06/16 12:47:17;;;;;;;5.63;2.92;;;;;;;;;;8365209;28;20049;-96
2022/06/16 12:51:55;;;;;;;3.53;2.40;;;;;;;;;;8404121;28;20052;-91
2022/06/16 12:56:31;;;;;;;4.68;2.53;;;;;;;;;;8477720;28;20407;-90
2022/06/16 13:05:30;;;;;;;7.53;2.70;;;;;;;;;;8482167;28;20048;-95
2022/06/16 13:09:48;;;;;;;4.20;2.30;;;;;;;;;;8449990;28;20074;-92
2022/06/16 13:14:10;;;;;;;5.65;2.30;;;;;;;;;;8471943;28;20044;-91
2022/06/16 13:18:21;;;;;;;6.50;2.60;;;;;;;;;;8464793;28;20142;-90
2022/06/16 13:22:51;;;;;;;9.38;4.82;;;;;;;;;;8474262;28;20035;-90
2022/06/16 13:32:31;;;;;;;14.10;5.32;;;;;;;;;;8461361;28;20065;-89
2022/06/16 13:48:20;;;;;;;23.77;7.95;;;;;;;;;;8102264;29;20057;-96
2022/06/16 13:58:29;;;;;;;5.05;2.65;;;;;;;;;;8085796;29;20092;-89
2022/06/16 14:19:07;;;;;;;5.30;2.97;;;;;;;;;;7877087;29;20050;-94
2022/06/16 14:23:16;;;;;;;7.87;3.17;;;;;;;;;;7981051;29;20149;-90
2022/06/16 14:27:25;;;;;;;12.45;5.65;;;;;;;;;;7983270;29;20054;-91
2022/06/16 14:31:31;;;;;;;7.95;4.30;;;;;;;;;;7973500;29;20498;-92
2022/06/16 14:35:42;;;;;;;7.35;4.90;;;;;;;;;;7982706;29;20050;-92
2022/06/16 14:39:47;;;;;;;;;;;;;;;;;;7977492;29;20058;-95
2022/06/16 14:43:59;;;;;;;11.68;7.85;;;;;;;;;;8013425;29;19974;-89
2022/06/16 14:48:06;;;;;;;5.97;4.68;;;;;;;;;;8069810;29;20043;-92
2022/06/16 14:52:21;;;;;;;6.03;4.00;;;;;;;;;;8171116;29;20054;-92
2022/06/16 14:56:26;;;;;;;5.15;3.38;;;;;;;;;;8265861;28;20058;-91
2022/06/16 15:00:40;;;;;;;6.45;3.70;;;;;;;;;;8307669;28;20464;-94
2022/06/16 15:04:46;;;;;;;5.93;4.82;;;;;;;;;;8301919;28;20056;-94
2022/06/16 15:08:54;;;;;;;4.72;3.38;;;;;;;;;;8313047;28;20538;-94
2022/06/16 15:13:01;;;;;;;6.88;3.33;;;;;;;;;;8342522;28;20515;-92
2022/06/16 15:21:40;;;;;;;6.57;3.08;;;;;;;;;;8327509;28;20191;-94
2022/06/16 15:25:51;;;;;;;3.85;2.80;;;;;;;;;;8331511;28;20535;-91
2022/06/16 15:29:55;;;;;;;6.75;3.20;;;;;;;;;;8304511;28;20045;-91
2022/06/16 15:38:41;;;;;;;16.00;7.65;;;;;;;;;;8297270;28;20481;-88
2022/06/16 15:42:46;;;;;;;4.82;3.40;;;;;;;;;;8329633;28;20046;-91
2022/06/16 15:46:53;;;;;;;6.50;3.58;;;;;;;;;;8331005;28;20107;-92
2022/06/16 15:51:04;;;;;;;9.80;5.50;;;;;;;;;;8310077;28;20115;-90
2022/06/16 15:55:11;;;;;;;7.37;4.70;;;;;;;;;;8316778;28;20060;-89
2022/06/16 15:59:17;;;;;;;7.50;4.13;;;;;;;;;;8395418;28;20054;-89
2022/06/16 16:03:24;;;;;;;8.35;4.47;;;;;;;;;;8394227;28;20075;-87
2022/06/16 16:07:29;;;;;;;7.28;5.10;;;;;;;;;;8382605;28;20045;-87
2022/06/16 16:11:33;;;;;;;11.45;8.77;;;;;;;;;;8394421;28;20047;-91
2022/06/16 16:15:40;;;;;;;23.70;9.00;;;;;;;;;;8394170;28;20049;-86
2022/06/16 16:19:59;;;;;;;11.93;6.40;;;;;;;;;;8378194;28;20057;-91
2022/06/16 16:24:03;;;;;;;8.13;6.25;;;;;;;;;;8375952;28;20080;-92
2022/06/16 16:28:13;;;;;;;11.75;5.85;;;;;;;;;;8393431;28;20424;-90
2022/06/16 16:32:26;;;;;;;13.38;8.98;;;;;;;;;;8379326;28;20136;-89
2022/06/16 16:36:34;;;;;;;16.25;10.30;;;;;;;;;;8373686;28;20118;-87
2022/06/16 16:45:08;;;;;;;11.45;5.38;;;;;;;;;;8382822;28;20124;-88
2022/06/16 16:49:12;;;;;;;11.10;7.13;;;;;;;;;;8369018;28;20531;-90
2022/06/16 16:53:26;;;;;;;15.13;8.82;;;;;;;;;;8420015;27;20055;-90
2022/06/16 16:57:29;;;;;;;8.68;5.82;;;;;;;;;;8488403;27;20052;-89
2022/06/16 17:01:35;;;;;;;12.50;8.20;;;;;;;;;;8480837;27;20490;-87
2022/06/16 17:05:39;;;;;;;9.38;7.43;;;;;;;;;;8474094;28;20054;-89
2022/06/16 17:09:44;;;;;;;13.20;8.90;;;;;;;;;;8463784;28;20039;-91
2022/06/16 17:14:07;;;;;;;23.77;13.20;;;;;;;;;;8460308;28;20142;-90
2022/06/16 17:18:45;;;;;;;11.68;7.88;;;;;;;;;;8485708;28;20122;-90
2022/06/16 17:23:11;;;;;;;9.90;6.65;;;;;;;;;;8479934;28;20035;-89
2022/06/16 17:27:33;;;;;;;15.02;8.27;;;;;;;;;;8487104;28;20070;-88
2022/06/16 17:31:46;;;;;;;13.02;9.60;;;;;;;;;;8470408;28;20068;-90
2022/06/16 17:36:02;;;;;;;11.95;9.65;;;;;;;;;;8474823;28;20035;-89
2022/06/16 17:40:20;;;;;;;13.73;10.45;;;;;;;;;;8491311;28;20143;-90
2022/06/16 17:44:28;;;;;;;12.23;8.35;;;;;;;;;;8457813;28;20055;-89
2022/06/16 17:48:33;;;;;;;9.52;7.07;;;;;;;;;;8491257;27;20100;-91
2022/06/16 18:01:38;;;;;;;59.85;35.72;;;;;;;;;;8491201;27;20073;-89
2022/06/16 18:10:30;;;;;;;11.35;7.47;;;;;;;;;;8492047;27;20047;-88
2022/06/16 18:14:39;;;;;;;10.88;8.45;;;;;;;;;;8494818;27;20051;-89
2022/06/16 18:18:59;;;;;;;8.40;6.60;;;;;;;;;;8483015;27;20039;-88
2022/06/16 18:23:10;;;;;;;9.35;6.22;;;;;;;;;;8478954;27;20131;-90
2022/06/16 18:28:09;;;;;;;9.18;6.97;;;;;;;;;;8492277;27;20063;-90
2022/06/16 18:32:37;;;;;;;9.13;6.35;;;;;;;;;;8481012;27;20454;-93
2022/06/16 18:36:45;;;;;;;;;;;;;;;;;;8503120;27;20050;-91
2022/06/16 18:40:54;;;;;;;8.40;6.22;;;;;;;;;;8475773;27;19968;-89
2022/06/16 18:45:05;;;;;;;11.45;6.18;;;;;;;;;;8484331;27;20130;-88
2022/06/16 18:49:15;;;;;;;7.60;6.28;;;;;;;;;;8501816;27;20402;-88
2022/06/16 18:53:25;;;;;;;8.88;7.07;;;;;;;;;;8492794;27;20466;-87
2022/06/16 18:57:37;;;;;;;9.68;7.60;;;;;;;;;;8492968;27;20045;-87
2022/06/16 19:01:49;;;;;;;9.15;6.88;;;;;;;;;;8501946;27;20046;-89
2022/06/16 19:06:00;;;;;;;9.07;6.78;;;;;;;;;;8492268;27;20111;-89
2022/06/16 19:10:26;;;;;;;10.82;7.22;;;;;;;;;;8481165;27;20040;-91
2022/06/16 19:20:25;;;;;;;13.38;7.53;;;;;;;;;;8479399;27;20053;-90
2022/06/16 19:29:52;;;;;;;8.73;6.70;;;;;;;;;;8484721;27;20096;-88
2022/06/16 19:39:22;;;;;;;12.43;8.38;;;;;;;;;;8459611;27;20055;-88
2022/06/16 19:52:37;;;;;;;12.25;8.35;;;;;;;;;;8475879;27;20092;-90
2022/06/16 19:56:40;;;;;;;10.77;8.85;;;;;;;;;;8485292;27;20042;-88
2022/06/16 20:00:52;;;;;;;13.15;10.07;;;;;;;;;;8487470;27;20095;-89
2022/06/16 20:04:56;;;;;;;17.95;9.63;;;;;;;;;;8483303;27;20130;-88
2022/06/16 20:09:09;;;;;;;13.38;9.38;;;;;;;;;;8492764;27;20043;-88
2022/06/16 20:13:24;;;;;;;10.52;8.45;;;;;;;;;;8493112;27;20078;-89
2022/06/16 20:17:36;;;;;;;11.65;9.38;;;;;;;;;;8477141;27;20058;-88
2022/06/16 20:21:51;;;;;;;14.13;9.75;;;;;;;;;;8488397;27;20035;-88
2022/06/16 20:26:04;;;;;;;13.07;9.85;;;;;;;;;;8494134;27;20062;-88
2022/06/16 20:30:13;;;;;;;13.88;9.20;;;;;;;;;;8490419;27;20055;-88
2022/06/16 20:34:24;;;;;;;12.30;8.77;;;;;;;;;;8498241;27;20043;-89
2022/06/16 20:38:27;;;;;;;12.75;9.20;;;;;;;;;;8483151;27;20131;-88
2022/06/16 20:42:32;;;;;;;11.93;9.00;;;;;;;;;;8492503;27;20035;-88
2022/06/16 20:46:38;;;;;;;11.68;9.20;;;;;;;;;;8476577;27;20048;-90
2022/06/16 20:50:46;;;;;;;12.55;9.35;;;;;;;;;;8489790;27;20043;-89
2022/06/16 20:54:50;;;;;;;11.90;9.23;;;;;;;;;;8489197;27;20035;-89
2022/06/16 21:03:16;;;;;;;11.50;9.23;;;;;;;;;;8495161;27;20050;-88
2022/06/16 21:07:22;;;;;;;12.70;10.07;;;;;;;;;;8487584;27;20502;-89
2022/06/16 21:15:50;;;;;;;11.70;9.77;;;;;;;;;;8490442;28;20543;-89
2022/06/16 21:19:55;;;;;;;10.85;8.98;;;;;;;;;;8482007;27;20858;-89
2022/06/16 21:24:00;;;;;;;12.57;9.52;;;;;;;;;;8491019;27;20050;-89
2022/06/16 21:28:04;;;;;;;17.90;12.85;;;;;;;;;;8490725;27;20050;-88
2022/06/16 21:32:10;;;;;;;14.77;10.50;;;;;;;;;;8489233;27;20123;-88
2022/06/16 21:36:15;;;;;;;14.75;10.98;;;;;;;;;;8501555;27;20035;-89
2022/06/16 21:40:25;;;;;;;38.80;19.65;;;;;;;;;;8492053;27;20043;-89
2022/06/16 21:44:29;;;;;;;24.77;13.20;;;;;;;;;;8497074;27;20051;-90
2022/06/16 21:48:32;;;;;;;21.05;12.30;;;;;;;;;;8471577;27;20096;-89
2022/06/16 21:52:36;;;;;;;12.77;10.38;;;;;;;;;;8496951;27;20043;-88
2022/06/16 21:56:42;;;;;;;13.20;9.60;;;;;;;;;;8487620;27;20031;-90
2022/06/16 22:00:45;;;;;;;14.38;10.15;;;;;;;;;;8496146;27;20050;-89
2022/06/16 22:04:49;;;;;;;12.98;9.45;;;;;;;;;;8497910;27;20069;-89
2022/06/16 22:08:52;;;;;;;12.05;9.77;;;;;;;;;;8494627;27;20039;-88
2022/06/16 22:12:57;;;;;;;13.57;8.90;;;;;;;;;;8483727;27;20051;-87
2022/06/16 22:17:00;;;;;;;12.15;9.40;;;;;;;;;;8498402;27;20050;-89
2022/06/16 22:21:06;;;;;;;12.40;9.23;;;;;;;;;;8492840;27;20035;-89
2022/06/16 22:25:11;;;;;;;10.55;8.55;;;;;;;;;;8471403;27;20039;-89
2022/06/16 22:29:17;;;;;;;13.15;9.00;;;;;;;;;;8489627;27;20104;-89
2022/06/16 22:33:23;;;;;;;12.00;8.93;;;;;;;;;;8490799;27;20066;-89
2022/06/16 22:37:26;;;;;;;13.50;9.02;;;;;;;;;;8500701;27;20035;-89
2022/06/16 22:41:34;;;;;;;13.70;10.05;;;;;;;;;;8501963;27;20044;-88
2022/06/16 22:45:39;;;;;;;21.92;13.73;;;;;;;;;;8499556;27;20065;-91
2022/06/16 22:49:43;;;;;;;13.68;10.57;;;;;;;;;;8483995;27;20160;-89
2022/06/16 22:56:18;;;;;;;23.52;11.82;;;;;;;;;;8501476;27;20043;-89
2022/06/16 22:58:11;;;;;;;12.73;9.10;;;;;;;;;;8483796;27;20043;-90
2022/06/16 23:02:15;;;;;;;12.60;8.45;;;;;;;;;;8498866;27;20058;-90
2022/06/16 23:06:23;;;;;;;12.18;8.95;;;;;;;;;;8499380;27;20039;-90
2022/06/16 23:10:26;;;;;;;13.77;9.43;;;;;;;;;;8499893;27;20043;-90
2022/06/16 23:14:29;;;;;;;12.30;9.13;;;;;;;;;;8498265;27;20091;-90
2022/06/16 23:18:39;;;;;;;12.82;9.05;;;;;;;;;;8495542;27;20043;-90
2022/06/16 23:22:42;;;;;;;11.23;8.63;;;;;;;;;;8500230;27;20208;-89
2022/06/16 23:26:46;;;;;;;12.50;8.80;;;;;;;;;;8500108;27;20498;-90
2022/06/16 23:30:50;;;;;;;13.05;8.80;;;;;;;;;;8500274;27;20043;-90
2022/06/16 23:34:59;;;;;;;11.50;9.27;;;;;;;;;;8487577;27;20092;-90
2022/06/16 23:39:01;;;;;;;11.77;8.57;;;;;;;;;;8483451;27;20470;-90
2022/06/16 23:43:04;;;;;;;13.93;8.85;;;;;;;;;;8484172;27;20383;-90
2022/06/16 23:47:09;;;;;;;14.10;9.20;;;;;;;;;;8491921;27;20088;-90
2022/06/16 23:51:19;;;;;;;13.25;8.88;;;;;;;;;;8475959;27;20051;-90
2022/06/16 23:55:21;;;;;;;10.95;8.05;;;;;;;;;;8476771;27;20043;-90
2022/06/16 23:59:24;;;;;;;10.32;8.35;;;;;;;;;;8476535;27;20035;-90
